createdAt,value
2022-10-01T00:01:12.568Z,55.97
2022-10-01T00:03:40.678Z,55.88
2022-10-01T00:06:10.333Z,56.11
2022-10-01T00:08:39.169Z,55.89
2022-10-01T00:11:14.122Z,55.68
2022-10-01T00:13:43.460Z,55.82
2022-10-01T00:16:13.953Z,56.49
2022-10-01T00:18:43.630Z,56.14
2022-10-01T00:21:13.957Z,56.52
2022-10-01T00:23:42.403Z,55.87
2022-10-01T00:26:13.717Z,56.30
2022-10-01T00:28:41.642Z,56.20
2022-10-01T00:31:10.602Z,56.28
2022-10-01T00:33:39.981Z,55.94
2022-10-01T00:36:09.732Z,56.08
2022-10-01T00:38:37.812Z,56.09
2022-10-01T00:41:06.017Z,56.33
2022-10-01T00:43:36.684Z,56.52
2022-10-01T00:46:08.061Z,56.47
2022-10-01T00:48:39.689Z,56.31
2022-10-01T00:51:07.595Z,56.53
2022-10-01T00:53:35.492Z,56.37
2022-10-01T00:56:03.317Z,56.07
2022-10-01T00:58:31.103Z,56.15
2022-10-01T01:01:00.247Z,55.41
2022-10-01T01:03:28.185Z,55.68
2022-10-01T01:05:55.952Z,55.75
2022-10-01T01:08:23.759Z,55.26
2022-10-01T01:10:59.486Z,55.95
2022-10-01T01:13:34.384Z,55.82
2022-10-01T01:16:07.146Z,56.01
2022-10-01T01:18:40.158Z,56.81
2022-10-01T01:21:20.814Z,56.96
2022-10-01T01:24:16.029Z,58.87
2022-10-01T01:26:50.062Z,60.53
2022-10-01T01:29:22.835Z,62.36
2022-10-01T01:31:50.782Z,64.27
2022-10-01T01:34:23.190Z,66.19
2022-10-01T01:36:54.192Z,67.75
2022-10-01T01:39:22.710Z,69.44
2022-10-01T01:41:53.406Z,70.55
2022-10-01T01:44:25.619Z,72.16
2022-10-01T01:46:55.088Z,73.01
2022-10-01T01:49:24.053Z,74.22
2022-10-01T01:51:55.323Z,74.44
2022-10-01T01:54:23.420Z,74.81
2022-10-01T01:56:51.416Z,75.93
2022-10-01T01:59:19.510Z,76.76
2022-10-01T02:01:49.502Z,77.01
2022-10-01T02:04:21.877Z,77.69
2022-10-01T02:07:01.206Z,78.13
2022-10-01T02:09:31.471Z,78.78
2022-10-01T02:12:08.021Z,79.45
2022-10-01T02:14:44.161Z,79.42
2022-10-01T02:17:17.858Z,79.97
2022-10-01T02:19:51.656Z,80.34
2022-10-01T02:22:22.018Z,80.49
2022-10-01T02:24:52.611Z,80.93
2022-10-01T02:27:25.385Z,80.91
2022-10-01T02:29:54.729Z,81.24
2022-10-01T02:32:24.680Z,81.06
2022-10-01T02:34:53.868Z,81.04
2022-10-01T02:37:24.708Z,81.29
2022-10-01T02:39:54.102Z,81.48
2022-10-01T02:42:23.058Z,81.80
2022-10-01T02:44:52.431Z,81.62
2022-10-01T02:47:24.479Z,81.71
2022-10-01T02:49:52.926Z,82.25
2022-10-01T02:52:27.261Z,82.08
2022-10-01T02:54:58.079Z,82.35
2022-10-01T02:57:27.972Z,82.18
2022-10-01T02:59:59.098Z,81.89
2022-10-01T03:02:29.746Z,82.34
2022-10-01T03:04:57.835Z,82.86
2022-10-01T03:07:25.953Z,82.86
2022-10-01T03:09:53.690Z,83.44
2022-10-01T03:12:21.812Z,83.36
2022-10-01T03:14:49.546Z,83.30
2022-10-01T03:17:17.934Z,83.79
2022-10-01T03:19:47.155Z,84.34
2022-10-01T03:22:18.124Z,84.94
2022-10-01T03:24:45.910Z,85.25
2022-10-01T03:27:13.637Z,89.80
2022-10-01T03:29:41.395Z,88.69
2022-10-01T03:32:09.159Z,88.03
2022-10-01T03:34:37.436Z,88.17
2022-10-01T03:37:06.550Z,88.66
2022-10-01T03:39:34.832Z,88.26
2022-10-01T03:42:02.578Z,87.98
2022-10-01T03:44:30.418Z,88.22
2022-10-01T03:46:58.240Z,88.34
2022-10-01T03:49:25.992Z,88.46
2022-10-01T03:51:53.816Z,88.95
2022-10-01T03:54:22.924Z,88.70
2022-10-01T03:56:50.693Z,87.67
2022-10-01T03:59:19.309Z,87.50
2022-10-01T04:01:47.170Z,87.94
2022-10-01T04:04:14.937Z,87.75
2022-10-01T04:06:42.689Z,88.12
2022-10-01T04:09:10.650Z,88.70
2022-10-01T04:11:40.039Z,89.22
2022-10-01T04:14:08.399Z,89.59
2022-10-01T04:16:36.871Z,90.66
2022-10-01T04:19:05.315Z,90.69
2022-10-01T04:21:33.402Z,91.03
2022-10-01T04:24:03.078Z,90.88
2022-10-01T04:26:31.001Z,90.60
2022-10-01T04:29:00.167Z,90.89
2022-10-01T04:31:29.323Z,90.91
2022-10-01T04:33:58.369Z,91.22
2022-10-01T04:36:26.810Z,92.67
2022-10-01T04:38:59.267Z,92.42
2022-10-01T04:41:30.622Z,92.65
2022-10-01T04:44:00.689Z,92.56
2022-10-01T04:46:29.420Z,92.34
2022-10-01T04:48:57.336Z,91.46
2022-10-01T04:51:25.288Z,90.46
2022-10-01T04:53:53.103Z,90.21
2022-10-01T04:56:20.927Z,89.82
2022-10-01T04:58:49.147Z,89.28
2022-10-01T05:01:18.462Z,88.36
2022-10-01T05:03:47.334Z,88.28
2022-10-01T05:06:15.361Z,87.59
2022-10-01T05:08:43.126Z,87.26
2022-10-01T05:11:10.851Z,86.47
2022-10-01T05:13:38.664Z,86.10
2022-10-01T05:16:06.755Z,85.72
2022-10-01T05:18:35.903Z,85.22
2022-10-01T05:21:06.029Z,84.79
2022-10-01T05:23:33.877Z,84.37
2022-10-01T05:26:04.215Z,84.01
2022-10-01T05:28:32.055Z,83.94
2022-10-01T05:31:00.493Z,83.71
2022-10-01T05:33:28.293Z,83.82
2022-10-01T05:35:57.458Z,83.70
2022-10-01T05:38:25.356Z,83.09
2022-10-01T05:40:53.059Z,83.44
2022-10-01T05:43:20.835Z,82.95
2022-10-01T05:45:51.352Z,82.89
2022-10-01T05:48:19.187Z,82.80
2022-10-01T05:50:46.922Z,82.86
2022-10-01T05:53:16.165Z,83.10
2022-10-01T05:55:44.105Z,83.25
2022-10-01T05:58:13.387Z,83.25
2022-10-01T06:00:42.363Z,83.58
2022-10-01T06:03:12.820Z,84.56
2022-10-01T06:05:40.862Z,84.90
2022-10-01T06:08:10.510Z,85.33
2022-10-01T06:10:40.310Z,85.73
2022-10-01T06:13:08.665Z,85.54
2022-10-01T06:15:38.486Z,86.09
2022-10-01T06:18:07.378Z,86.31
2022-10-01T06:20:35.405Z,86.73
2022-10-01T06:23:05.735Z,86.84
2022-10-01T06:25:34.960Z,88.14
2022-10-01T06:28:05.879Z,88.66
2022-10-01T06:30:36.238Z,88.04
2022-10-01T06:33:04.873Z,88.08
2022-10-01T06:35:33.049Z,87.22
2022-10-01T06:38:02.412Z,86.94
2022-10-01T06:40:30.370Z,86.66
2022-10-01T06:42:58.835Z,87.03
2022-10-01T06:45:28.970Z,88.05
2022-10-01T06:47:57.322Z,88.08
2022-10-01T06:50:25.868Z,88.43
2022-10-01T06:52:54.139Z,88.54
2022-10-01T06:55:23.385Z,88.90
2022-10-01T06:57:55.241Z,87.93
2022-10-01T07:00:23.478Z,88.16
2022-10-01T07:02:52.645Z,88.45
2022-10-01T07:05:20.387Z,87.97
2022-10-01T07:07:48.917Z,87.47
2022-10-01T07:10:20.229Z,86.43
2022-10-01T07:12:49.138Z,86.51
2022-10-01T07:15:17.679Z,86.72
2022-10-01T07:17:46.551Z,86.53
2022-10-01T07:20:17.645Z,86.45
2022-10-01T07:22:45.808Z,86.70
2022-10-01T07:25:13.562Z,86.43
2022-10-01T07:27:41.520Z,86.07
2022-10-01T07:30:10.220Z,85.23
2022-10-01T07:32:38.049Z,85.34
2022-10-01T07:35:06.846Z,85.54
2022-10-01T07:37:36.003Z,85.34
2022-10-01T07:40:07.374Z,86.19
2022-10-01T07:42:35.519Z,86.77
2022-10-01T07:45:06.571Z,87.47
2022-10-01T07:47:34.369Z,87.45
2022-10-01T07:50:02.249Z,87.50
2022-10-01T07:52:29.975Z,87.03
2022-10-01T07:54:59.074Z,87.12
2022-10-01T07:57:26.837Z,87.71
2022-10-01T07:59:56.037Z,87.80
2022-10-01T08:02:24.245Z,87.89
2022-10-01T08:05:09.808Z,88.63
2022-10-01T08:07:37.700Z,89.17
2022-10-01T08:10:07.639Z,88.43
2022-10-01T08:12:35.719Z,88.22
2022-10-01T08:15:03.634Z,88.76
2022-10-01T08:17:31.633Z,88.77
2022-10-01T08:19:59.370Z,89.20
2022-10-01T08:22:27.101Z,88.35
2022-10-01T08:24:54.831Z,88.14
2022-10-01T08:27:25.992Z,88.22
2022-10-01T08:29:53.714Z,87.96
2022-10-01T08:32:22.030Z,86.87
2022-10-01T08:34:54.508Z,86.62
2022-10-01T08:37:28.152Z,86.54
2022-10-01T08:39:56.326Z,85.50
2022-10-01T08:42:42.763Z,85.37
2022-10-01T08:45:14.236Z,84.57
2022-10-01T08:47:43.860Z,83.87
2022-10-01T08:50:18.220Z,84.17
2022-10-01T08:52:50.857Z,83.81
2022-10-01T08:55:21.808Z,84.17
2022-10-01T08:57:54.678Z,84.16
2022-10-01T09:00:22.746Z,83.13
2022-10-01T09:02:52.906Z,83.11
2022-10-01T09:05:24.800Z,82.46
2022-10-01T09:08:10.327Z,81.42
2022-10-01T09:10:44.860Z,80.97
2022-10-01T09:13:40.529Z,80.25
2022-10-01T09:16:14.221Z,80.30
2022-10-01T09:18:53.152Z,80.42
2022-10-01T09:21:25.851Z,79.78
2022-10-01T09:24:00.437Z,81.04
2022-10-01T09:26:28.177Z,80.82
2022-10-01T09:29:00.157Z,80.34
2022-10-01T09:31:30.177Z,80.50
2022-10-01T09:34:03.226Z,79.74
2022-10-01T09:36:36.175Z,80.16
2022-10-01T09:39:11.814Z,79.59
2022-10-01T09:41:39.601Z,78.39
2022-10-01T09:44:18.734Z,78.80
2022-10-01T09:46:47.127Z,77.84
2022-10-01T09:49:20.707Z,77.13
2022-10-01T09:51:51.322Z,77.56
2022-10-01T09:54:22.924Z,77.41
2022-10-01T09:56:53.970Z,76.26
2022-10-01T09:59:27.261Z,75.40
2022-10-01T10:01:58.850Z,76.44
2022-10-01T10:04:26.923Z,76.37
2022-10-01T10:07:01.689Z,75.22
2022-10-01T10:09:30.838Z,75.25
2022-10-01T10:11:59.341Z,75.02
2022-10-01T10:14:32.271Z,74.76
2022-10-01T10:17:05.801Z,75.55
2022-10-01T10:19:33.977Z,74.86
2022-10-01T10:22:11.526Z,76.03
2022-10-01T10:24:39.396Z,77.40
2022-10-01T10:27:18.223Z,79.05
2022-10-01T10:29:47.448Z,79.93
2022-10-01T10:32:18.998Z,80.41
2022-10-01T10:34:47.365Z,81.63
2022-10-01T10:37:17.213Z,82.03
2022-10-01T10:39:50.024Z,81.79
2022-10-01T10:42:18.776Z,81.18
2022-10-01T10:44:50.183Z,80.87
2022-10-01T10:47:19.893Z,80.26
2022-10-01T10:49:49.498Z,80.50
2022-10-01T10:52:23.648Z,79.91
2022-10-01T10:54:52.340Z,79.31
2022-10-01T10:57:22.259Z,79.49
2022-10-01T10:59:59.134Z,77.48
2022-10-01T11:02:30.046Z,75.62
2022-10-01T11:04:59.074Z,74.08
2022-10-01T11:07:27.832Z,72.23
2022-10-01T11:10:16.123Z,69.90
2022-10-01T11:12:57.438Z,68.35
2022-10-01T11:15:37.594Z,63.90
2022-10-01T11:18:18.210Z,61.75
2022-10-01T11:20:53.926Z,62.58
2022-10-01T11:23:53.418Z,60.59
2022-10-01T11:26:25.540Z,63.92
2022-10-01T11:29:05.151Z,65.08
2022-10-01T11:31:39.284Z,65.58
2022-10-01T11:34:20.849Z,65.51
2022-10-01T11:36:58.186Z,65.77
2022-10-01T11:39:28.322Z,64.86
2022-10-01T11:41:59.623Z,67.50
2022-10-01T11:44:30.970Z,67.81
2022-10-01T11:47:04.078Z,64.85
2022-10-01T11:49:42.912Z,65.41
2022-10-01T11:52:17.917Z,67.31
2022-10-01T11:54:56.411Z,66.49
2022-10-01T11:57:42.360Z,65.27
2022-10-01T12:00:12.255Z,63.50
2022-10-01T12:02:48.393Z,64.55
2022-10-01T12:05:18.589Z,62.83
2022-10-01T12:07:49.510Z,60.90
2022-10-01T12:10:26.591Z,60.69
2022-10-01T12:12:58.222Z,57.84
2022-10-01T12:15:30.477Z,55.24
2022-10-01T12:18:04.204Z,56.51
2022-10-01T12:20:36.490Z,58.55
2022-10-01T12:23:06.556Z,59.82
2022-10-01T12:25:41.281Z,60.49
2022-10-01T12:28:12.739Z,61.90
2022-10-01T12:30:46.048Z,64.33
2022-10-01T12:34:01.313Z,71.49
2022-10-01T12:36:38.133Z,70.28
2022-10-01T12:39:18.296Z,70.68
2022-10-01T12:41:53.264Z,72.06
2022-10-01T12:44:39.930Z,72.23
2022-10-01T12:47:22.760Z,72.34
2022-10-01T12:49:56.253Z,73.56
2022-10-01T12:52:35.729Z,71.56
2022-10-01T12:55:19.349Z,70.42
2022-10-01T12:57:54.154Z,70.46
2022-10-01T13:00:23.901Z,69.08
2022-10-01T13:03:10.741Z,66.15
2022-10-01T13:05:45.404Z,64.42
2022-10-01T13:08:27.783Z,65.33
2022-10-01T13:11:03.375Z,65.07
2022-10-01T13:13:33.496Z,66.47
2022-10-01T13:16:07.633Z,68.66
2022-10-01T13:18:41.236Z,70.79
2022-10-01T13:21:13.294Z,69.11
2022-10-01T13:23:47.154Z,70.49
2022-10-01T13:26:18.232Z,70.36
2022-10-01T13:28:59.018Z,74.22
2022-10-01T13:31:36.065Z,94.17
2022-10-01T13:34:03.993Z,92.46
2022-10-01T13:36:33.838Z,31.47
2022-10-01T13:39:03.197Z,29.31
2022-10-01T13:41:33.412Z,32.94
2022-10-01T13:44:23.593Z,49.03
2022-10-01T13:46:52.888Z,71.99
2022-10-01T13:49:25.210Z,77.82
2022-10-01T13:51:53.591Z,80.12
2022-10-01T13:54:28.376Z,80.75
2022-10-01T13:56:56.300Z,79.69
2022-10-01T13:59:32.669Z,80.60
2022-10-01T14:02:00.830Z,81.70
2022-10-01T14:04:35.858Z,79.98
2022-10-01T14:07:06.099Z,80.72
2022-10-01T14:09:36.532Z,83.74
2022-10-01T14:12:24.129Z,83.38
2022-10-01T14:15:11.947Z,82.50
2022-10-01T14:17:40.057Z,80.70
2022-10-01T14:20:09.225Z,77.36
2022-10-01T14:22:47.081Z,76.95
2022-10-01T14:25:32.203Z,64.70
2022-10-01T14:28:13.866Z,69.06
2022-10-01T14:30:48.535Z,74.23
2022-10-01T14:33:32.131Z,77.98
2022-10-01T14:36:04.481Z,79.23
2022-10-01T14:38:32.297Z,80.44
2022-10-01T14:41:01.971Z,79.53
2022-10-01T14:43:31.421Z,79.23
2022-10-01T14:46:01.192Z,78.18
2022-10-01T14:48:30.306Z,78.42
2022-10-01T14:51:00.012Z,77.36
2022-10-01T14:53:29.387Z,76.98
2022-10-01T14:56:01.917Z,74.73
2022-10-01T14:58:32.352Z,77.39
2022-10-01T15:01:01.805Z,74.61
2022-10-01T15:03:37.195Z,72.54
2022-10-01T15:06:09.393Z,72.45
2022-10-01T15:08:39.910Z,70.85
2022-10-01T15:11:12.071Z,69.72
2022-10-01T15:13:42.235Z,71.00
2022-10-01T15:16:13.161Z,73.44
2022-10-01T15:18:44.526Z,72.63
2022-10-01T15:21:17.339Z,73.50
2022-10-01T15:23:45.789Z,71.12
2022-10-01T15:26:20.384Z,71.14
2022-10-01T15:28:48.236Z,69.70
2022-10-01T15:31:16.785Z,70.33
2022-10-01T15:33:44.707Z,70.81
2022-10-01T15:36:14.438Z,71.49
2022-10-01T15:38:44.387Z,70.22
2022-10-01T15:41:31.651Z,71.57
2022-10-01T15:44:01.393Z,69.28
2022-10-01T15:46:32.382Z,70.22
2022-10-01T15:49:20.301Z,70.60
2022-10-01T15:52:11.721Z,70.23
2022-10-01T15:54:40.270Z,70.05
2022-10-01T15:57:10.699Z,70.91
2022-10-01T15:59:40.907Z,70.52
2022-10-01T16:02:11.125Z,70.75
2022-10-01T16:04:39.259Z,70.08
2022-10-01T16:07:07.047Z,70.21
2022-10-01T16:09:34.869Z,70.51
2022-10-01T16:12:05.283Z,69.88
2022-10-01T16:14:37.606Z,70.04
2022-10-01T16:17:34.561Z,68.89
2022-10-01T16:20:36.751Z,68.44
2022-10-01T16:23:42.159Z,68.12
2022-10-01T16:26:36.394Z,68.88
2022-10-01T16:29:07.833Z,68.62
2022-10-01T16:31:38.083Z,66.91
2022-10-01T16:34:12.058Z,67.02
2022-10-01T16:36:40.127Z,67.03
2022-10-01T16:39:08.343Z,67.23
2022-10-01T16:41:36.656Z,66.98
2022-10-01T16:44:06.085Z,66.81
2022-10-01T16:46:34.498Z,66.55
2022-10-01T16:49:10.808Z,64.53
2022-10-01T16:51:40.923Z,65.52
2022-10-01T16:54:21.809Z,64.22
2022-10-01T16:56:50.675Z,66.15
2022-10-01T16:59:19.238Z,65.63
2022-10-01T17:01:47.435Z,64.67
2022-10-01T17:04:16.626Z,65.62
2022-10-01T17:06:44.495Z,64.96
2022-10-01T17:09:12.428Z,65.15
2022-10-01T17:11:40.856Z,65.68
2022-10-01T17:14:11.211Z,65.92
2022-10-01T17:16:39.225Z,66.45
2022-10-01T17:19:07.260Z,66.85
2022-10-01T17:21:36.907Z,66.12
2022-10-01T17:24:04.826Z,67.65
2022-10-01T17:26:32.885Z,65.44
2022-10-01T17:29:01.122Z,67.50
2022-10-01T17:31:30.378Z,68.07
2022-10-01T17:33:58.205Z,67.34
2022-10-01T17:36:25.966Z,67.41
2022-10-01T17:38:55.043Z,66.75
2022-10-01T17:41:22.828Z,67.30
2022-10-01T17:43:50.601Z,68.52
2022-10-01T17:46:18.434Z,68.42
2022-10-01T17:48:48.581Z,69.02
2022-10-01T17:51:17.018Z,67.91
2022-10-01T17:53:44.799Z,68.86
2022-10-01T17:56:16.737Z,69.16
2022-10-01T17:58:45.905Z,69.21
2022-10-01T18:01:15.815Z,69.62
2022-10-01T18:03:43.838Z,69.84
2022-10-01T18:06:15.230Z,69.47
2022-10-01T18:08:58.146Z,70.46
2022-10-01T18:11:29.103Z,70.79
2022-10-01T18:13:57.077Z,71.01
2022-10-01T18:16:25.365Z,69.51
2022-10-01T18:21:45.492Z,71.01
2022-10-01T18:24:13.238Z,71.01
2022-10-01T18:26:42.340Z,70.90
2022-10-01T18:29:11.135Z,70.52
2022-10-01T18:31:44.246Z,70.94
2022-10-01T18:34:17.393Z,70.81
2022-10-01T18:36:53.170Z,71.33
2022-10-01T18:39:26.677Z,71.68
2022-10-01T18:41:55.839Z,71.50
2022-10-01T18:44:24.840Z,71.43
2022-10-01T18:47:05.400Z,71.02
2022-10-01T18:49:55.567Z,71.10
2022-10-01T18:52:30.981Z,71.54
2022-10-01T18:55:43.258Z,71.68
2022-10-01T18:58:58.517Z,71.89
2022-10-01T19:01:32.933Z,71.49
2022-10-01T19:04:10.414Z,72.04
2022-10-01T19:06:49.370Z,71.96
2022-10-01T19:09:37.667Z,71.85
2022-10-01T19:12:15.677Z,71.48
2022-10-01T19:14:55.871Z,72.27
2022-10-01T19:17:39.783Z,72.08
2022-10-01T19:20:26.644Z,71.64
2022-10-01T19:23:05.342Z,71.97
2022-10-01T19:25:38.251Z,71.46
2022-10-01T19:28:16.635Z,71.90
2022-10-01T19:31:02.454Z,72.98
2022-10-01T19:33:34.613Z,73.08
2022-10-01T19:36:02.761Z,74.09
2022-10-01T19:38:35.567Z,73.32
2022-10-01T19:41:06.613Z,74.04
2022-10-01T19:43:39.194Z,73.92
2022-10-01T19:46:11.995Z,72.82
2022-10-01T19:48:47.603Z,73.73
2022-10-01T19:51:19.673Z,75.33
2022-10-01T19:53:49.854Z,73.96
2022-10-01T19:56:22.055Z,74.47
2022-10-01T19:58:49.784Z,73.86
2022-10-01T20:01:21.154Z,72.97
2022-10-01T20:03:54.790Z,73.58
2022-10-01T20:06:26.632Z,73.36
2022-10-01T20:08:57.164Z,73.13
2022-10-01T20:11:30.651Z,73.39
2022-10-01T20:14:37.893Z,73.39
2022-10-01T20:17:14.790Z,73.86
2022-10-01T20:19:49.777Z,73.25
2022-10-01T20:22:23.629Z,73.76
2022-10-01T20:24:58.923Z,74.55
2022-10-01T20:27:34.213Z,75.21
2022-10-01T20:30:05.724Z,74.75
2022-10-01T20:32:38.401Z,74.85
2022-10-01T20:35:22.309Z,74.06
2022-10-01T20:37:59.086Z,74.70
2022-10-01T20:40:29.851Z,74.13
2022-10-01T20:43:02.891Z,72.67
2022-10-01T20:45:33.880Z,73.23
2022-10-01T20:48:05.710Z,71.68
2022-10-01T20:50:39.075Z,72.30
2022-10-01T20:53:19.728Z,72.04
2022-10-01T20:55:51.955Z,72.42
2022-10-01T20:58:23.469Z,71.72
2022-10-01T21:00:55.463Z,71.95
2022-10-01T21:03:27.458Z,71.39
2022-10-01T21:06:00.855Z,71.05
2022-10-01T21:08:42.124Z,70.43
2022-10-01T21:11:14.380Z,69.92
2022-10-01T21:13:48.296Z,69.64
2022-10-01T21:16:38.278Z,70.52
2022-10-01T21:19:18.128Z,72.05
2022-10-01T21:21:55.393Z,72.18
2022-10-01T21:24:35.074Z,71.27
2022-10-01T21:27:11.842Z,71.27
2022-10-01T21:30:00.856Z,71.83
2022-10-01T21:32:38.157Z,72.01
2022-10-01T21:35:16.538Z,73.42
2022-10-01T21:38:00.602Z,71.87
2022-10-01T21:40:36.163Z,72.87
2022-10-01T21:43:08.784Z,70.99
2022-10-01T21:45:39.776Z,70.56
2022-10-01T21:48:21.622Z,71.35
2022-10-01T21:50:52.953Z,72.20
2022-10-01T21:53:47.366Z,70.73
2022-10-01T21:56:32.818Z,71.28
2022-10-01T21:59:07.090Z,71.46
2022-10-01T22:01:50.450Z,71.63
2022-10-01T22:04:20.886Z,71.10
2022-10-01T22:06:52.938Z,71.17
2022-10-01T22:09:27.231Z,72.03
2022-10-01T22:11:57.340Z,72.33
2022-10-01T22:14:25.425Z,71.80
2022-10-01T22:16:56.282Z,71.98
2022-10-01T22:19:28.609Z,73.07
2022-10-01T22:22:00.803Z,73.49
2022-10-01T22:24:34.820Z,72.25
2022-10-01T22:27:06.984Z,72.22
2022-10-01T22:29:39.056Z,72.64
2022-10-01T22:32:09.677Z,73.05
2022-10-01T22:34:40.605Z,72.20
2022-10-01T22:37:12.671Z,72.56
2022-10-01T22:39:45.566Z,73.73
2022-10-01T22:42:16.500Z,73.33
2022-10-01T22:44:44.558Z,74.22
2022-10-01T22:47:21.363Z,75.30
2022-10-01T22:50:00.187Z,74.42
2022-10-01T22:52:34.726Z,74.48
2022-10-01T22:55:16.148Z,74.44
2022-10-01T22:58:03.473Z,72.99
2022-10-01T23:00:33.039Z,73.25
2022-10-01T23:03:08.025Z,73.59
2022-10-01T23:05:44.752Z,73.93
2022-10-01T23:08:17.672Z,73.73
2022-10-01T23:10:56.236Z,73.91
2022-10-01T23:13:29.482Z,74.06
2022-10-01T23:16:04.134Z,73.88
2022-10-01T23:18:40.869Z,74.57
2022-10-01T23:21:16.225Z,73.70
2022-10-01T23:23:50.012Z,73.75
2022-10-01T23:26:34.363Z,73.00
2022-10-01T23:29:37.514Z,72.69
2022-10-01T23:32:14.228Z,73.57
2022-10-01T23:34:47.560Z,73.14
2022-10-01T23:37:28.311Z,74.27
2022-10-01T23:40:00.006Z,74.14
2022-10-01T23:42:35.414Z,73.75
2022-10-01T23:45:15.781Z,73.98
2022-10-01T23:47:47.912Z,74.71
2022-10-01T23:50:22.479Z,75.52
2022-10-01T23:52:59.578Z,75.40
2022-10-01T23:56:00.356Z,75.52
2022-10-01T23:58:30.792Z,75.05
